This is the latest recevied weather packets stored in our database for station/object OE-11344. If no packets are shown the sender has not sent any weather packets the latest 10 day(s).
| Time | Temp. | Humidity | Pressure | Rain* | Wind** | Luminosity | Snow |
|---|---|---|---|---|---|---|---|
| 1787833512 | 24.44° C | 37% | 854.1 hPa | 0 mm | - | 604 W/m² | - |
| 1787832685 | 25° C | 31% | 854.3 hPa | 0 mm | - | 719 W/m² | - |
| 1787832312 | 24.44° C | 36% | 854.3 hPa | 0 mm | - | 755 W/m² | - |
| 1787831711 | 24.44° C | 32% | 854.3 hPa | 0 mm | - | 773 W/m² | - |
| 1787830885 | 24.44° C | 31% | 854.5 hPa | 0 mm | - | 785 W/m² | - |
| 1787830511 | 24.44° C | 32% | 854.3 hPa | 0 mm | - | 755 W/m² | - |
| 1787829911 | 24.44° C | 30% | 854.5 hPa | 0 mm | - | 773 W/m² | - |
| 1787829085 | 24.44° C | 32% | 854.4 hPa | 0 mm | - | 749 W/m² | - |
| 1787828712 | 24.44° C | 33% | 854.4 hPa | 0 mm | - | 755 W/m² | - |
| 1787828112 | 23.89° C | 34% | 854.5 hPa | 0 mm | - | 767 W/m² | - |
| 1787827284 | 23.33° C | 34% | 854.5 hPa | 0 mm | - | 749 W/m² | - |
| 1787826911 | 23.33° C | 33% | 854.5 hPa | 0 mm | - | 737 W/m² | - |
| 1787826312 | 23.33° C | 31% | 854.5 hPa | 0 mm | - | 737 W/m² | - |
| 1787825485 | 23.33° C | 35% | 854.4 hPa | 0 mm | - | 676 W/m² | - |
| 1787825112 | 23.33° C | 34% | 854.4 hPa | 0 mm | - | 688 W/m² | - |
| 1787824512 | 22.78° C | 36% | 854.4 hPa | 0 mm | - | 531 W/m² | - |
| 1787823685 | 21.67° C | 40% | 854.2 hPa | 0 mm | - | 471 W/m² | - |
| 1787823312 | 21.11° C | 52% | 854 hPa | 0 mm | - | 386 W/m² | - |
| 1787822711 | 20° C | 50% | 854.1 hPa | 0 mm | - | 368 W/m² | - |
| 1787821885 | 20° C | 54% | 854.1 hPa | 0 mm | - | 368 W/m² | - |
| 1787821511 | 20° C | 55% | 854.1 hPa | 0 mm | - | 411 W/m² | - |
| 1787820912 | 19.44° C | 54% | 854.3 hPa | 0 mm | - | 441 W/m² | - |
| 1787820085 | 19.44° C | 57% | 854.2 hPa | 0 mm | - | 368 W/m² | - |
| 1787819712 | 19.44° C | 57% | 854.2 hPa | 0 mm | - | 380 W/m² | - |
| 1787819112 | 20.56° C | 54% | 854 hPa | 0 mm | - | 435 W/m² | - |
* Rain latest hour (hover to see other rain measurements)
** Current wind speed in m/s (hover to see current wind gust speed)